Time;durP1;ratioP1;P1;durP2;ratioP2;P2;SDS_P1;SDS_P2;PMS_P1;PMS_P2;Temp;Humidity;BMP_temperature;BMP_pressure;BME280_temperature;BME280_humidity;BME280_pressure;Samples;Min_cycle;Max_cycle;Signal;HPM_P1;HPM_P2
2021/10/29 00:00:42;;;;;;;6.83;6.20;;;6.60;99.90;;;;;;5011127;28;20603;-75
2021/10/29 00:03:08;;;;;;;6.30;5.70;;;6.60;99.90;;;;;;5000147;28;20270;-75
2021/10/29 00:05:35;;;;;;;6.03;5.33;;;6.60;99.90;;;;;;4998876;28;20180;-75
2021/10/29 00:08:01;;;;;;;6.87;5.97;;;6.50;99.90;;;;;;5013258;28;20510;-75
2021/10/29 00:10:27;;;;;;;7.90;5.70;;;6.50;99.90;;;;;;5009613;28;20490;-75
2021/10/29 00:12:54;;;;;;;6.63;6.03;;;6.50;99.90;;;;;;5012574;28;20433;-75
2021/10/29 00:15:20;;;;;;;7.13;6.17;;;6.50;99.90;;;;;;5012771;28;20892;-75
2021/10/29 00:17:46;;;;;;;8.63;7.63;;;6.40;99.90;;;;;;5010845;28;20501;-75
2021/10/29 00:20:12;;;;;;;8.43;7.37;;;6.50;99.90;;;;;;5012150;28;20865;-75
2021/10/29 00:22:38;;;;;;;8.63;7.50;;;6.50;99.90;;;;;;5011047;28;20859;-75
2021/10/29 00:25:05;;;;;;;8.20;7.00;;;6.50;99.90;;;;;;5012667;28;20208;-75
2021/10/29 00:27:30;;;;;;;9.00;7.87;;;6.50;99.90;;;;;;5010993;28;20428;-75
2021/10/29 00:29:56;;;;;;;9.60;8.40;;;6.50;99.90;;;;;;5011305;28;20444;-75
2021/10/29 00:32:23;;;;;;;10.03;8.70;;;6.50;99.90;;;;;;5011490;28;20583;-75
2021/10/29 00:34:48;;;;;;;9.77;8.77;;;6.50;99.90;;;;;;5011594;28;20620;-75
2021/10/29 00:37:14;;;;;;;13.10;8.90;;;6.60;99.90;;;;;;5012944;28;20500;-75
2021/10/29 00:39:40;;;;;;;11.63;9.30;;;6.60;99.90;;;;;;5010099;28;20198;-75
2021/10/29 00:42:06;;;;;;;9.90;8.50;;;6.60;99.90;;;;;;5012008;28;20203;-75
2021/10/29 00:44:32;;;;;;;9.87;8.87;;;6.60;99.90;;;;;;5011885;28;21060;-75
2021/10/29 00:46:58;;;;;;;10.77;8.63;;;6.60;99.90;;;;;;5012951;28;20413;-75
2021/10/29 00:49:23;;;;;;;11.70;8.93;;;6.60;99.90;;;;;;5012701;28;20420;-75
2021/10/29 00:51:50;;;;;;;9.70;8.70;;;6.60;99.90;;;;;;5011531;28;20178;-75
2021/10/29 00:54:17;;;;;;;9.87;8.37;;;6.50;99.90;;;;;;5012076;28;20182;-75
2021/10/29 00:56:45;;;;;;;10.90;8.80;;;6.50;99.90;;;;;;5009431;28;20421;-75
2021/10/29 00:59:10;;;;;;;9.70;8.60;;;6.50;99.90;;;;;;5011317;28;20464;-75
2021/10/29 01:01:36;;;;;;;13.90;9.17;;;6.40;99.90;;;;;;5011970;28;20852;-75
2021/10/29 01:04:03;;;;;;;11.13;9.37;;;6.40;99.90;;;;;;5011210;28;20194;-75
2021/10/29 01:06:29;;;;;;;13.27;8.93;;;6.40;99.90;;;;;;5012269;28;20203;-75
2021/10/29 01:08:54;;;;;;;9.37;8.30;;;6.50;99.90;;;;;;5010828;28;20444;-75
2021/10/29 01:11:21;;;;;;;18.07;8.23;;;6.40;99.90;;;;;;5010576;28;20432;-75
2021/10/29 01:13:48;;;;;;;10.53;9.20;;;6.40;99.90;;;;;;5009278;28;20609;-75
2021/10/29 01:16:15;;;;;;;11.03;8.20;;;6.30;99.90;;;;;;5012078;28;20970;-75
2021/10/29 01:18:41;;;;;;;11.00;9.50;;;6.30;99.90;;;;;;5011241;28;20461;-75
2021/10/29 01:21:07;;;;;;;10.30;8.60;;;6.30;99.90;;;;;;5010326;28;20825;-75
2021/10/29 01:23:34;;;;;;;10.77;9.63;;;6.30;99.90;;;;;;5012671;28;20751;-75
2021/10/29 01:26:05;;;;;;;12.30;10.10;;;6.30;99.90;;;;;;5012585;28;20421;-75
2021/10/29 01:28:31;;;;;;;14.40;10.53;;;6.30;99.90;;;;;;5010185;28;20405;-75
2021/10/29 01:30:57;;;;;;;15.37;9.77;;;6.30;99.90;;;;;;5010320;28;20746;-74
2021/10/29 01:33:22;;;;;;;12.57;10.67;;;6.20;99.90;;;;;;5009127;28;20229;-75
2021/10/29 01:35:48;;;;;;;14.73;10.97;;;6.30;99.90;;;;;;5011432;28;20194;-75
2021/10/29 01:38:15;;;;;;;14.77;10.37;;;6.30;99.90;;;;;;5011477;28;20632;-75
2021/10/29 01:40:40;;;;;;;13.53;10.50;;;6.20;99.90;;;;;;5012517;28;20273;-75
2021/10/29 01:43:06;;;;;;;14.70;9.93;;;6.30;99.90;;;;;;5011679;28;20909;-75
2021/10/29 01:45:34;;;;;;;13.73;11.13;;;6.20;99.90;;;;;;5010186;28;20179;-75
2021/10/29 01:48:00;;;;;;;16.17;12.13;;;6.20;99.90;;;;;;5008404;28;20340;-75
2021/10/29 01:50:26;;;;;;;15.10;11.87;;;6.20;99.90;;;;;;5010890;28;20507;-75
2021/10/29 01:52:51;;;;;;;18.77;13.60;;;6.20;99.90;;;;;;5011494;28;20518;-75
2021/10/29 01:55:17;;;;;;;15.63;13.40;;;6.20;99.90;;;;;;5011956;28;20508;-75
2021/10/29 01:57:44;;;;;;;16.47;11.80;;;6.20;99.90;;;;;;5011875;28;20182;-75
2021/10/29 02:00:10;;;;;;;19.80;12.37;;;6.30;99.90;;;;;;5011500;28;20471;-75
2021/10/29 02:02:36;;;;;;;16.70;13.20;;;6.20;99.90;;;;;;5010513;28;20406;-74
2021/10/29 02:05:02;;;;;;;16.00;12.30;;;6.20;99.90;;;;;;5009689;28;20480;-75
2021/10/29 02:07:28;;;;;;;15.90;13.40;;;6.20;99.90;;;;;;5011140;28;20443;-75
2021/10/29 02:09:54;;;;;;;15.30;12.60;;;6.30;99.90;;;;;;5011223;28;20418;-75
2021/10/29 02:12:19;;;;;;;24.80;13.10;;;6.30;99.90;;;;;;5011882;28;20198;-75
2021/10/29 02:14:45;;;;;;;18.67;13.27;;;6.30;99.90;;;;;;5009505;28;20210;-74
2021/10/29 02:17:10;;;;;;;18.43;13.00;;;6.30;99.90;;;;;;5011183;28;20244;-75
2021/10/29 02:19:36;;;;;;;21.07;12.90;;;6.30;99.90;;;;;;5009396;28;20652;-75
2021/10/29 02:22:02;;;;;;;20.07;13.00;;;6.30;99.90;;;;;;5010806;28;20176;-75
2021/10/29 02:24:28;;;;;;;19.03;13.23;;;6.30;99.90;;;;;;5015311;28;20186;-74
2021/10/29 02:26:54;;;;;;;19.00;13.50;;;6.30;99.90;;;;;;5014461;28;20432;-75
2021/10/29 02:29:20;;;;;;;16.10;11.63;;;6.30;99.90;;;;;;5014597;28;20426;-75
2021/10/29 02:31:45;;;;;;;15.70;11.47;;;6.20;99.90;;;;;;5014970;28;20187;-75
2021/10/29 02:34:11;;;;;;;16.87;12.87;;;6.20;99.90;;;;;;5014307;28;20186;-75
2021/10/29 02:36:37;;;;;;;16.33;11.90;;;6.10;99.90;;;;;;5013986;28;20639;-75
2021/10/29 02:39:03;;;;;;;16.77;13.13;;;6.10;99.90;;;;;;5012092;28;20512;-75
2021/10/29 02:41:29;;;;;;;14.47;11.13;;;6.00;99.90;;;;;;5012845;28;20194;-74
2021/10/29 02:43:55;;;;;;;15.50;13.00;;;5.90;99.90;;;;;;5013223;28;20842;-74
2021/10/29 02:46:21;;;;;;;16.33;13.10;;;6.00;99.90;;;;;;5014510;28;20733;-75
2021/10/29 02:48:47;;;;;;;15.10;11.40;;;5.90;99.90;;;;;;5014734;28;20581;-75
2021/10/29 02:51:13;;;;;;;16.63;11.80;;;5.80;99.90;;;;;;5013835;28;20505;-74
2021/10/29 02:53:39;;;;;;;15.20;11.03;;;5.80;99.90;;;;;;5013436;28;20189;-74
2021/10/29 02:56:07;;;;;;;12.33;9.60;;;5.80;99.90;;;;;;5012799;28;20526;-75
2021/10/29 02:58:33;;;;;;;15.73;12.37;;;5.80;99.90;;;;;;5013770;28;20931;-75
2021/10/29 03:01:00;;;;;;;14.43;10.63;;;5.70;99.90;;;;;;5013710;28;20441;-75
2021/10/29 03:03:26;;;;;;;16.30;12.43;;;5.70;99.90;;;;;;5013889;28;20509;-75
2021/10/29 03:05:52;;;;;;;19.40;12.40;;;5.60;99.90;;;;;;5014153;28;20517;-75
2021/10/29 03:08:17;;;;;;;14.37;10.80;;;5.60;99.90;;;;;;5014180;28;20943;-74
2021/10/29 03:10:43;;;;;;;16.33;12.23;;;5.50;99.90;;;;;;5013127;28;20183;-74
2021/10/29 03:13:09;;;;;;;17.60;12.53;;;5.50;99.90;;;;;;5013377;28;20548;-75
2021/10/29 03:15:35;;;;;;;17.27;12.33;;;5.50;99.90;;;;;;5012550;28;20646;-74
2021/10/29 03:18:01;;;;;;;15.57;11.33;;;5.50;99.90;;;;;;5012708;28;20462;-74
2021/10/29 03:20:27;;;;;;;13.83;11.70;;;5.40;99.90;;;;;;5010694;28;20413;-75
2021/10/29 03:22:53;;;;;;;16.30;12.03;;;5.40;99.90;;;;;;5013576;28;20189;-74
2021/10/29 03:25:18;;;;;;;16.13;11.30;;;5.40;99.90;;;;;;5014153;28;20762;-74
2021/10/29 03:27:44;;;;;;;15.57;12.20;;;5.40;99.90;;;;;;5013556;28;20450;-74
2021/10/29 03:30:11;;;;;;;16.00;11.60;;;5.40;99.90;;;;;;5011684;28;20608;-74
2021/10/29 03:32:37;;;;;;;16.10;12.10;;;5.40;99.90;;;;;;5012848;28;20232;-75
2021/10/29 03:35:03;;;;;;;16.90;12.70;;;5.40;99.90;;;;;;5012358;28;20426;-75
2021/10/29 03:45:50;;;;;;;16.83;13.77;;;5.30;99.90;;;;;;5010237;28;20414;-74
2021/10/29 03:48:19;;;;;;;19.90;13.37;;;5.30;99.90;;;;;;5010186;28;20477;-74
2021/10/29 03:51:01;;;;;;;18.63;11.67;;;5.30;99.90;;;;;;5013324;28;20406;-74
2021/10/29 03:56:00;;;;;;;20.37;14.20;;;5.30;99.90;;;;;;5013278;28;20413;-74
2021/10/29 03:58:26;;;;;;;17.70;13.37;;;5.30;99.90;;;;;;5012127;28;20452;-74
2021/10/29 04:00:52;;;;;;;18.60;12.53;;;5.30;99.90;;;;;;5013444;28;20780;-74
2021/10/29 04:03:18;;;;;;;18.40;11.90;;;5.30;99.90;;;;;;5007920;28;20182;-74
2021/10/29 04:05:44;;;;;;;17.37;13.63;;;5.30;99.90;;;;;;5013155;28;20415;-74
2021/10/29 04:08:10;;;;;;;14.57;11.13;;;5.30;99.90;;;;;;5012663;28;20182;-75
2021/10/29 04:10:41;;;;;;;14.97;11.10;;;5.30;99.90;;;;;;5012934;28;20234;-74
2021/10/29 04:13:10;;;;;;;16.93;12.80;;;5.30;99.90;;;;;;5013383;28;20425;-74
2021/10/29 04:15:40;;;;;;;17.23;12.30;;;5.20;99.90;;;;;;5012923;28;20428;-74
2021/10/29 04:18:07;;;;;;;16.23;12.80;;;5.20;99.90;;;;;;5013864;28;20441;-74
2021/10/29 04:20:33;;;;;;;19.50;12.07;;;5.20;99.90;;;;;;5010215;28;20409;-74
2021/10/29 04:22:59;;;;;;;17.37;12.90;;;5.20;99.90;;;;;;5012005;28;20759;-74
2021/10/29 04:25:25;;;;;;;19.50;12.43;;;5.20;99.90;;;;;;5009480;28;20487;-74
2021/10/29 04:28:04;;;;;;;19.00;12.63;;;5.20;99.90;;;;;;5011678;28;20170;-74
2021/10/29 04:30:30;;;;;;;18.73;12.30;;;5.20;99.90;;;;;;5012864;28;20163;-74
2021/10/29 04:32:57;;;;;;;14.90;12.40;;;5.20;99.90;;;;;;5012473;28;20757;-74
2021/10/29 04:35:23;;;;;;;28.47;13.60;;;5.20;99.90;;;;;;5011921;28;20174;-74
2021/10/29 04:37:49;;;;;;;14.00;10.47;;;5.20;99.90;;;;;;5009756;28;20405;-74
2021/10/29 04:40:14;;;;;;;16.73;11.27;;;5.30;99.90;;;;;;5012678;28;20417;-74
2021/10/29 04:42:41;;;;;;;19.40;12.60;;;5.30;99.90;;;;;;5011989;28;20174;-74
2021/10/29 04:45:07;;;;;;;18.33;11.93;;;5.30;99.90;;;;;;5011550;28;20542;-74
2021/10/29 04:47:33;;;;;;;15.43;11.23;;;5.40;99.90;;;;;;5012452;28;21066;-74
2021/10/29 04:49:59;;;;;;;19.53;11.90;;;5.40;99.90;;;;;;5010662;28;20471;-74
2021/10/29 04:52:25;;;;;;;18.30;12.40;;;5.40;99.90;;;;;;5011611;28;20409;-74
2021/10/29 04:54:51;;;;;;;17.40;12.17;;;5.40;99.90;;;;;;5012145;28;20962;-74
2021/10/29 04:57:16;;;;;;;15.70;10.70;;;5.40;99.90;;;;;;5012035;28;20643;-74
2021/10/29 04:59:42;;;;;;;17.00;11.90;;;5.30;99.90;;;;;;5012058;28;20191;-75
2021/10/29 05:02:08;;;;;;;15.73;11.20;;;5.30;99.90;;;;;;5012741;28;20181;-74
2021/10/29 05:04:34;;;;;;;12.97;10.70;;;5.30;99.90;;;;;;5012289;28;20178;-74
2021/10/29 05:07:00;;;;;;;15.43;11.53;;;5.30;99.90;;;;;;5012381;28;20210;-74
2021/10/29 05:09:25;;;;;;;16.77;10.67;;;5.30;99.90;;;;;;5011933;28;20456;-74
2021/10/29 05:11:51;;;;;;;14.97;10.80;;;5.20;99.90;;;;;;5010780;28;20678;-74
2021/10/29 05:14:17;;;;;;;16.17;11.07;;;5.20;99.90;;;;;;5010742;28;20208;-74
2021/10/29 05:16:43;;;;;;;14.60;10.53;;;5.20;99.90;;;;;;5010894;28;20243;-75
2021/10/29 05:19:08;;;;;;;16.00;11.80;;;5.20;99.90;;;;;;5012107;28;20539;-74
2021/10/29 05:21:34;;;;;;;18.07;11.67;;;5.10;99.90;;;;;;5011907;28;20507;-74
2021/10/29 05:24:00;;;;;;;21.80;12.03;;;5.10;99.90;;;;;;5012328;28;20606;-74
2021/10/29 05:26:25;;;;;;;20.33;12.53;;;5.10;99.90;;;;;;5010748;28;20254;-74
2021/10/29 05:28:51;;;;;;;24.33;13.70;;;5.00;99.90;;;;;;5010330;28;20174;-74
2021/10/29 05:31:17;;;;;;;23.53;14.60;;;5.10;99.90;;;;;;5009561;28;20215;-74
2021/10/29 05:33:42;;;;;;;26.63;13.73;;;5.10;99.90;;;;;;5010935;28;20182;-74
2021/10/29 05:36:08;;;;;;;20.83;14.80;;;5.10;99.90;;;;;;5012096;28;20179;-74
2021/10/29 05:38:34;;;;;;;21.20;15.23;;;5.00;99.90;;;;;;5012040;28;20256;-74
2021/10/29 05:41:01;;;;;;;21.60;14.33;;;5.00;99.90;;;;;;5011650;28;20521;-74
2021/10/29 05:43:28;;;;;;;21.97;12.40;;;5.10;99.90;;;;;;5010611;28;20410;-74
2021/10/29 05:45:53;;;;;;;22.90;12.37;;;5.10;99.90;;;;;;5009664;28;20463;-74
2021/10/29 05:48:19;;;;;;;14.77;11.07;;;5.10;99.90;;;;;;5011010;28;20500;-74
2021/10/29 05:50:50;;;;;;;16.77;11.30;;;5.10;99.90;;;;;;5011253;28;20187;-74
2021/10/29 05:53:39;;;;;;;13.93;11.23;;;5.10;99.90;;;;;;5011266;28;20401;-74
2021/10/29 05:56:05;;;;;;;19.63;12.60;;;5.10;99.90;;;;;;5011026;28;20766;-74
2021/10/29 05:58:34;;;;;;;18.70;11.27;;;5.10;99.90;;;;;;5015434;28;20456;-74
2021/10/29 06:01:01;;;;;;;14.83;10.33;;;5.10;99.90;;;;;;5013644;28;20740;-74
2021/10/29 06:03:26;;;;;;;16.13;11.50;;;5.10;99.90;;;;;;5014440;28;20483;-74
2021/10/29 06:05:53;;;;;;;16.73;12.67;;;5.10;99.90;;;;;;5014371;28;21009;-74
2021/10/29 06:08:19;;;;;;;19.10;11.60;;;5.10;99.90;;;;;;5014865;28;20266;-74
2021/10/29 06:10:45;;;;;;;17.67;11.93;;;5.10;99.90;;;;;;5015431;28;20551;-74
2021/10/29 06:13:10;;;;;;;19.53;11.30;;;5.00;99.90;;;;;;5015043;28;20862;-74
2021/10/29 06:15:38;;;;;;;16.80;10.87;;;5.10;99.90;;;;;;5014561;28;20613;-74
2021/10/29 06:18:03;;;;;;;17.50;10.90;;;5.10;99.90;;;;;;5013409;28;20593;-74
2021/10/29 06:20:31;;;;;;;16.70;11.10;;;5.10;99.90;;;;;;5015395;28;20413;-74
2021/10/29 06:22:57;;;;;;;17.77;11.60;;;5.10;99.90;;;;;;5013297;28;20182;-74
2021/10/29 06:25:29;;;;;;;16.87;11.20;;;5.10;99.90;;;;;;5015298;28;20457;-74
2021/10/29 06:30:42;;;;;;;17.73;10.57;;;5.10;99.90;;;;;;5014970;28;20397;-74
2021/10/29 06:33:10;;;;;;;14.60;10.87;;;5.10;99.90;;;;;;5014802;28;20929;-74
2021/10/29 06:35:38;;;;;;;19.20;11.47;;;5.10;99.90;;;;;;5009246;28;20414;-74
2021/10/29 06:38:04;;;;;;;18.47;11.93;;;5.10;99.90;;;;;;5013129;28;20938;-74
2021/10/29 06:40:31;;;;;;;16.77;11.90;;;5.10;99.90;;;;;;5014773;28;20424;-74
2021/10/29 06:43:01;;;;;;;18.37;13.43;;;5.20;99.90;;;;;;5013644;28;20744;-74
2021/10/29 06:46:04;;;;;;;22.80;12.37;;;5.20;99.90;;;;;;5014487;28;20412;-74
2021/10/29 07:03:13;;;;;;;19.87;13.37;;;5.30;99.90;;;;;;5012422;28;20473;-74
2021/10/29 07:42:27;;;;;;;17.33;11.13;;;5.80;99.90;;;;;;5012667;28;20414;-75
2021/10/29 07:44:53;;;;;;;19.67;12.10;;;5.90;99.90;;;;;;5011756;28;20405;-74
2021/10/29 07:47:20;;;;;;;19.07;12.23;;;5.90;99.90;;;;;;5013674;28;20410;-74
2021/10/29 07:49:46;;;;;;;17.47;11.17;;;6.00;99.90;;;;;;5012484;28;20599;-74
2021/10/29 07:52:12;;;;;;;17.00;12.37;;;6.10;99.90;;;;;;5012302;28;20421;-74
2021/10/29 07:54:44;;;;;;;20.73;12.77;;;6.30;99.90;;;;;;5012308;28;20185;-74
2021/10/29 07:57:10;;;;;;;23.00;11.90;;;6.40;99.90;;;;;;5013496;28;20405;-74
2021/10/29 07:59:35;;;;;;;18.27;11.73;;;6.60;99.90;;;;;;5011564;28;20475;-74
2021/10/29 08:02:01;;;;;;;20.20;11.97;;;6.70;99.90;;;;;;5011951;28;20770;-74
2021/10/29 08:04:27;;;;;;;19.00;12.73;;;6.80;99.90;;;;;;5012851;28;20676;-74
2021/10/29 08:06:53;;;;;;;20.30;12.33;;;6.90;99.90;;;;;;5011185;28;20256;-74
2021/10/29 08:09:20;;;;;;;17.83;12.20;;;7.00;99.90;;;;;;5012057;28;20268;-74
2021/10/29 08:11:47;;;;;;;20.30;12.83;;;7.10;99.90;;;;;;5013068;28;20190;-74
2021/10/29 08:14:13;;;;;;;20.90;13.33;;;7.10;99.90;;;;;;5012257;28;20426;-74
2021/10/29 08:16:40;;;;;;;19.67;12.00;;;7.20;99.90;;;;;;5012400;28;20483;-74
2021/10/29 08:19:05;;;;;;;21.90;12.20;;;7.30;99.90;;;;;;5011266;28;20484;-74
2021/10/29 08:21:31;;;;;;;22.13;12.37;;;7.40;99.90;;;;;;5013082;28;20453;-74
2021/10/29 08:23:57;;;;;;;18.70;12.23;;;7.60;99.90;;;;;;5011519;28;20237;-74
2021/10/29 08:26:22;;;;;;;19.90;11.87;;;7.70;99.90;;;;;;5013290;28;20206;-74
2021/10/29 08:28:48;;;;;;;19.10;12.03;;;7.90;99.90;;;;;;5012489;28;20183;-75
2021/10/29 08:31:14;;;;;;;17.23;11.73;;;8.00;99.90;;;;;;5012694;28;20185;-75
2021/10/29 08:33:39;;;;;;;21.43;11.30;;;8.10;99.90;;;;;;5011241;28;20175;-74
2021/10/29 08:36:06;;;;;;;22.00;10.97;;;8.20;99.90;;;;;;5012415;28;20227;-75
2021/10/29 08:38:32;;;;;;;17.60;11.30;;;8.30;99.90;;;;;;5012839;28;20233;-74
2021/10/29 08:40:58;;;;;;;18.03;10.60;;;8.50;99.90;;;;;;5010957;28;20425;-74
2021/10/29 08:43:24;;;;;;;15.70;10.40;;;8.70;99.90;;;;;;5011425;28;21135;-74
2021/10/29 08:45:50;;;;;;;17.67;10.50;;;8.80;99.90;;;;;;5010919;28;20424;-74
2021/10/29 08:48:17;;;;;;;16.13;9.47;;;8.90;99.90;;;;;;5012845;28;20178;-74
2021/10/29 08:50:43;;;;;;;11.13;7.90;;;9.00;99.90;;;;;;5011441;28;20490;-74
2021/10/29 08:53:08;;;;;;;13.00;8.90;;;9.10;99.90;;;;;;5012395;28;20812;-74
2021/10/29 08:55:35;;;;;;;14.07;9.10;;;9.20;99.90;;;;;;5012885;28;20420;-75
2021/10/29 08:58:05;;;;;;;10.70;7.57;;;9.30;99.90;;;;;;5011942;28;20593;-74
2021/10/29 09:00:38;;;;;;;13.53;7.20;;;9.50;99.90;;;;;;5010060;28;20526;-75
2021/10/29 09:03:11;;;;;;;8.67;7.03;;;9.60;99.90;;;;;;5012405;28;20428;-75
2021/10/29 09:08:19;;;;;;;10.00;6.97;;;9.90;99.90;;;;;;5011096;28;20413;-74
2021/10/29 09:11:11;;;;;;;8.47;6.50;;;10.00;99.90;;;;;;5010695;28;20449;-75
2021/10/29 09:34:11;;;;;;;6.33;5.73;;;11.40;99.90;;;;;;5015739;28;20408;-75
2021/10/29 09:36:43;;;;;;;8.10;5.30;;;11.60;99.90;;;;;;5015650;28;20503;-75
2021/10/29 09:39:12;;;;;;;7.83;5.50;;;11.70;99.90;;;;;;5015719;28;20449;-75
2021/10/29 09:41:39;;;;;;;6.60;5.27;;;11.90;99.90;;;;;;5014313;28;20487;-75
2021/10/29 09:44:14;;;;;;;7.47;5.10;;;12.00;99.90;;;;;;5014466;28;20454;-75
2021/10/29 09:46:52;;;;;;;6.97;5.00;;;12.10;99.90;;;;;;5015351;28;20894;-75
2021/10/29 09:49:31;;;;;;;6.40;4.77;;;12.40;99.90;;;;;;5014598;28;20723;-75
2021/10/29 09:57:22;;;;;;;5.53;4.93;;;12.70;99.90;;;;;;5015388;28;20906;-75
2021/10/29 09:59:55;;;;;;;4.23;3.93;;;12.70;99.90;;;;;;5013014;28;20461;-75
2021/10/29 10:02:22;;;;;;;6.43;4.73;;;12.70;99.90;;;;;;5015753;28;20500;-75
2021/10/29 10:04:52;;;;;;;5.83;4.97;;;12.70;99.90;;;;;;5014943;28;20460;-75
2021/10/29 10:07:23;;;;;;;5.30;4.80;;;12.80;99.90;;;;;;5015239;28;20547;-75
2021/10/29 10:09:51;;;;;;;5.47;4.87;;;12.90;99.90;;;;;;5013892;28;20842;-75
2021/10/29 10:12:21;;;;;;;5.50;5.00;;;13.10;99.90;;;;;;5015301;28;20409;-75
2021/10/29 10:14:51;;;;;;;7.03;4.90;;;13.30;99.90;;;;;;5015028;28;20413;-75
2021/10/29 10:17:17;;;;;;;4.90;4.27;;;13.40;99.90;;;;;;5011941;28;20413;-75
2021/10/29 10:19:43;;;;;;;4.30;3.90;;;13.60;99.90;;;;;;5014872;28;20543;-75
2021/10/29 10:22:14;;;;;;;6.43;4.43;;;13.80;99.90;;;;;;5014933;28;20966;-75
2021/10/29 10:24:41;;;;;;;4.60;3.87;;;13.80;99.90;;;;;;5014405;28;20167;-75
2021/10/29 10:27:31;;;;;;;4.63;4.17;;;14.00;99.90;;;;;;5014476;28;20421;-75
2021/10/29 10:30:07;;;;;;;6.00;3.47;;;14.10;99.90;;;;;;5015067;28;20953;-75
2021/10/29 10:41:04;;;;;;;3.87;3.57;;;14.60;99.90;;;;;;5014684;28;20400;-75
2021/10/29 10:43:39;;;;;;;4.60;3.37;;;14.80;99.90;;;;;;5012555;28;20800;-75
2021/10/29 10:46:21;;;;;;;3.13;2.83;;;14.90;99.90;;;;;;5014319;28;20402;-75
2021/10/29 10:49:07;;;;;;;3.70;3.20;;;15.10;99.90;;;;;;5013835;28;20398;-75
2021/10/29 10:51:54;;;;;;;3.20;2.90;;;15.20;99.90;;;;;;5011821;28;20552;-75
2021/10/29 11:10:15;;;;;;;3.10;2.80;;;16.10;99.90;;;;;;5014451;28;20508;-75
2021/10/29 11:12:40;;;;;;;2.70;2.60;;;16.20;99.90;;;;;;5014035;28;20604;-76
2021/10/29 11:15:06;;;;;;;3.10;2.80;;;16.30;99.90;;;;;;5013626;28;20429;-75
2021/10/29 11:17:51;;;;;;;3.10;2.90;;;16.40;99.90;;;;;;5013947;28;20213;-75
2021/10/29 11:20:36;;;;;;;3.07;2.30;;;16.50;99.90;;;;;;5011120;28;20202;-76
2021/10/29 11:23:06;;;;;;;3.33;2.97;;;16.60;99.90;;;;;;5011477;28;20401;-76
2021/10/29 11:25:52;;;;;;;2.93;2.70;;;16.70;99.90;;;;;;5012563;28;20417;-76
2021/10/29 11:28:20;;;;;;;3.20;2.80;;;16.70;99.90;;;;;;5013679;28;20428;-76
2021/10/29 11:30:46;;;;;;;3.07;2.67;;;16.80;99.90;;;;;;5013733;28;20410;-75
2021/10/29 11:33:15;;;;;;;3.50;3.20;;;16.80;99.90;;;;;;5013677;28;20476;-76
2021/10/29 11:35:52;;;;;;;2.83;2.63;;;16.80;99.90;;;;;;5012254;28;20237;-76
2021/10/29 11:38:19;;;;;;;2.97;2.87;;;16.90;99.90;;;;;;5013866;28;20492;-76
2021/10/29 11:40:45;;;;;;;3.13;2.93;;;17.00;99.90;;;;;;5012461;28;20415;-76
2021/10/29 11:43:21;;;;;;;4.10;3.00;;;17.00;99.90;;;;;;5010742;28;20837;-75
2021/10/29 11:45:47;;;;;;;3.20;3.00;;;17.10;99.90;;;;;;5013105;28;20401;-76
2021/10/29 11:48:13;;;;;;;2.53;2.33;;;17.30;99.90;;;;;;5013189;28;20449;-76
2021/10/29 11:50:39;;;;;;;2.77;2.67;;;17.30;99.90;;;;;;5013048;28;20445;-76
2021/10/29 11:53:04;;;;;;;2.87;2.67;;;17.40;99.90;;;;;;5013516;28;20233;-75
2021/10/29 11:58:14;;;;;;;2.53;2.33;;;17.50;99.90;;;;;;5010848;28;20407;-76
2021/10/29 12:00:57;;;;;;;3.20;2.80;;;17.60;99.90;;;;;;5011208;28;20421;-76
2021/10/29 12:06:16;;;;;;;2.87;2.67;;;17.90;99.90;;;;;;5012590;28;20444;-76
2021/10/29 12:08:42;;;;;;;3.20;3.00;;;18.00;99.90;;;;;;5013033;28;20417;-76
2021/10/29 12:11:09;;;;;;;2.60;2.30;;;17.90;99.90;;;;;;5012809;28;20421;-76
2021/10/29 12:13:41;;;;;;;2.50;2.33;;;17.90;99.90;;;;;;5011581;28;20202;-75
2021/10/29 12:16:20;;;;;;;2.90;2.70;;;17.90;99.90;;;;;;5011966;28;20405;-76
2021/10/29 12:19:04;;;;;;;3.03;2.73;;;17.90;99.90;;;;;;5012590;28;20464;-76
2021/10/29 12:21:34;;;;;;;4.17;3.30;;;17.80;99.90;;;;;;5011252;28;20915;-76
2021/10/29 12:24:04;;;;;;;3.10;2.50;;;17.60;99.90;;;;;;5011577;28;20485;-76
2021/10/29 12:26:37;;;;;;;2.80;2.40;;;17.60;99.90;;;;;;5010806;28;20755;-76
2021/10/29 12:29:11;;;;;;;4.57;3.03;;;17.60;99.90;;;;;;5011680;28;20398;-76
2021/10/29 12:32:07;;;;;;;6.30;3.20;;;17.50;99.90;;;;;;5011860;28;20524;-76
2021/10/29 12:36:40;;;;;;;3.30;3.10;;;17.40;99.90;;;;;;5012379;28;20459;-76
2021/10/29 13:03:24;;;;;;;4.60;3.07;;;17.00;99.90;;;;;;5011626;28;20932;-76
2021/10/29 13:05:54;;;;;;;3.77;3.47;;;17.00;99.90;;;;;;5008577;28;20426;-75
2021/10/29 13:08:21;;;;;;;6.80;3.67;;;17.00;99.90;;;;;;5010407;28;20417;-76
2021/10/29 13:10:54;;;;;;;3.17;2.83;;;17.00;99.90;;;;;;5012127;28;20449;-75
2021/10/29 13:13:36;;;;;;;3.13;2.93;;;17.10;99.90;;;;;;5012278;28;20409;-75
2021/10/29 13:16:11;;;;;;;4.33;3.10;;;17.00;99.90;;;;;;5012502;28;20475;-76
2021/10/29 13:29:20;;;;;;;3.20;2.90;;;16.70;99.90;;;;;;5011566;28;20738;-76
2021/10/29 13:50:49;;;;;;;3.43;3.13;;;16.90;99.90;;;;;;5010699;28;20488;-76
2021/10/29 14:28:46;;;;;;;3.03;2.80;;;16.00;99.90;;;;;;5014688;28;20734;-76
2021/10/29 14:31:27;;;;;;;2.87;2.67;;;15.90;99.90;;;;;;5013543;28;20414;-76
2021/10/29 14:34:02;;;;;;;2.87;2.67;;;15.70;99.90;;;;;;5015511;28;20420;-76
2021/10/29 14:36:39;;;;;;;4.70;2.60;;;15.70;99.90;;;;;;5013305;28;20540;-76
2021/10/29 14:39:10;;;;;;;3.43;2.47;;;15.60;99.90;;;;;;5013608;28;20526;-76
2021/10/29 14:44:16;;;;;;;2.50;2.27;;;15.40;99.90;;;;;;5013903;28;20804;-76
2021/10/29 15:16:30;;;;;;;2.70;2.50;;;14.60;99.90;;;;;;5012341;28;20401;-75
2021/10/29 15:27:11;;;;;;;2.53;2.43;;;14.30;99.90;;;;;;5013721;28;20821;-76
2021/10/29 15:29:46;;;;;;;3.30;3.10;;;14.30;99.90;;;;;;5012611;28;20444;-76
2021/10/29 15:43:13;;;;;;;3.40;3.10;;;14.00;99.90;;;;;;5012258;28;20397;-76
2021/10/29 15:45:41;;;;;;;3.77;3.10;;;14.00;99.90;;;;;;5012895;28;20410;-76
2021/10/29 15:48:27;;;;;;;4.67;3.03;;;14.00;99.90;;;;;;5013829;28;20409;-76
2021/10/29 15:50:52;;;;;;;4.60;2.83;;;14.00;99.90;;;;;;5011666;28;20488;-77
2021/10/29 15:53:18;;;;;;;4.80;2.73;;;13.90;99.90;;;;;;5013423;28;20790;-76
2021/10/29 15:55:56;;;;;;;3.30;3.10;;;13.90;99.90;;;;;;5011775;28;20507;-76
2021/10/29 15:58:31;;;;;;;3.03;2.83;;;13.90;99.90;;;;;;5012562;28;20190;-76
2021/10/29 16:03:54;;;;;;;3.50;3.30;;;13.80;99.90;;;;;;5013072;28;20400;-76
2021/10/29 16:17:18;;;;;;;2.50;2.30;;;13.50;99.90;;;;;;5012210;28;20535;-76
2021/10/29 16:19:44;;;;;;;3.07;2.87;;;13.40;99.90;;;;;;5010420;28;20548;-76
2021/10/29 16:22:17;;;;;;;3.20;3.00;;;13.40;99.90;;;;;;5011141;28;20225;-76
2021/10/29 16:24:53;;;;;;;3.47;2.93;;;13.30;99.90;;;;;;5012773;28;20175;-76
2021/10/29 16:27:19;;;;;;;3.83;3.43;;;13.20;99.90;;;;;;5012393;28;20734;-76
2021/10/29 16:29:46;;;;;;;2.80;2.60;;;13.20;99.90;;;;;;5012659;28;20467;-76
2021/10/29 16:32:19;;;;;;;3.50;3.20;;;13.20;99.90;;;;;;5011865;28;20413;-76
2021/10/29 16:34:44;;;;;;;4.50;2.93;;;13.10;99.90;;;;;;5011970;28;20404;-76
2021/10/29 16:37:11;;;;;;;3.57;3.27;;;13.10;99.90;;;;;;5012100;28;20417;-76
2021/10/29 16:39:36;;;;;;;2.63;2.43;;;13.00;99.90;;;;;;5012149;28;20289;-76
2021/10/29 16:42:04;;;;;;;3.37;3.07;;;13.00;99.90;;;;;;5012409;28;20938;-76
2021/10/29 16:44:29;;;;;;;4.47;3.13;;;13.00;99.90;;;;;;5011499;28;20240;-76
2021/10/29 16:46:56;;;;;;;3.93;3.20;;;12.90;99.90;;;;;;5010296;28;20410;-76
2021/10/29 16:49:23;;;;;;;3.40;3.10;;;12.90;99.90;;;;;;5011584;28;20166;-76
2021/10/29 16:51:48;;;;;;;3.57;3.30;;;12.80;99.90;;;;;;5012678;28;20417;-76
2021/10/29 16:54:14;;;;;;;4.27;3.23;;;12.80;99.90;;;;;;5012170;28;20487;-76
2021/10/29 16:56:40;;;;;;;5.20;3.27;;;12.80;99.90;;;;;;5012038;28;20183;-76
2021/10/29 16:59:05;;;;;;;3.90;3.30;;;12.80;99.90;;;;;;5009872;28;20182;-76
2021/10/29 17:01:34;;;;;;;3.83;3.13;;;12.80;99.90;;;;;;5011919;28;20210;-76
2021/10/29 17:04:00;;;;;;;2.83;2.63;;;12.70;99.90;;;;;;5011134;28;20873;-76
2021/10/29 17:06:26;;;;;;;4.03;3.40;;;12.70;99.90;;;;;;5012941;28;20431;-76
2021/10/29 17:08:52;;;;;;;3.80;3.20;;;12.70;99.90;;;;;;5011146;28;20226;-76
2021/10/29 17:11:18;;;;;;;4.17;3.20;;;12.70;99.90;;;;;;5012089;28;20451;-76
2021/10/29 17:13:43;;;;;;;4.07;3.80;;;12.70;99.90;;;;;;5012733;28;20529;-76
2021/10/29 17:16:09;;;;;;;4.07;3.67;;;12.60;99.90;;;;;;5011844;28;20183;-76
2021/10/29 17:18:35;;;;;;;6.50;5.43;;;12.60;99.90;;;;;;5012332;28;20517;-76
2021/10/29 17:21:03;;;;;;;6.30;5.17;;;12.50;99.90;;;;;;5010770;28;20545;-76
2021/10/29 17:23:30;;;;;;;5.03;4.40;;;12.50;99.90;;;;;;5012205;28;21057;-76
2021/10/29 17:25:57;;;;;;;5.23;4.37;;;12.50;99.90;;;;;;5008717;28;20425;-76
2021/10/29 17:28:22;;;;;;;5.00;4.40;;;12.50;99.90;;;;;;5010545;28;20417;-76